sensor_id;sensor_type;location;lat;lon;timestamp;pressure;altitude;pressure_sealevel;temperature;humidity
12146;BME280;6136;47.032;15.398;2023-05-08T00:01:55;97869.41;;;13.84;100.00
12146;BME280;6136;47.032;15.398;2023-05-08T00:04:23;97861.63;;;13.81;100.00
12146;BME280;6136;47.032;15.398;2023-05-08T00:06:51;97865.91;;;13.71;100.00
12146;BME280;6136;47.032;15.398;2023-05-08T00:09:19;97858.22;;;13.66;100.00
12146;BME280;6136;47.032;15.398;2023-05-08T00:11:48;97871.63;;;13.65;100.00
12146;BME280;6136;47.032;15.398;2023-05-08T00:14:17;97861.41;;;13.58;100.00
12146;BME280;6136;47.032;15.398;2023-05-08T00:16:45;97868.47;;;13.59;100.00
12146;BME280;6136;47.032;15.398;2023-05-08T00:19:13;97872.16;;;13.57;100.00
12146;BME280;6136;47.032;15.398;2023-05-08T00:21:41;97877.31;;;13.47;100.00
12146;BME280;6136;47.032;15.398;2023-05-08T00:24:09;97874.59;;;13.35;100.00
12146;BME280;6136;47.032;15.398;2023-05-08T00:26:38;97881.44;;;13.26;100.00
12146;BME280;6136;47.032;15.398;2023-05-08T00:29:07;97877.06;;;13.25;100.00
12146;BME280;6136;47.032;15.398;2023-05-08T00:31:37;97878.13;;;13.23;100.00
12146;BME280;6136;47.032;15.398;2023-05-08T00:34:05;97881.09;;;13.18;100.00
12146;BME280;6136;47.032;15.398;2023-05-08T00:36:33;97873.91;;;13.06;100.00
12146;BME280;6136;47.032;15.398;2023-05-08T00:39:02;97877.91;;;12.99;100.00
12146;BME280;6136;47.032;15.398;2023-05-08T00:41:30;97888.13;;;12.92;100.00
12146;BME280;6136;47.032;15.398;2023-05-08T00:43:58;97891.63;;;12.93;100.00
12146;BME280;6136;47.032;15.398;2023-05-08T00:46:26;97891.81;;;12.90;100.00
12146;BME280;6136;47.032;15.398;2023-05-08T00:48:56;97896.59;;;12.84;100.00
12146;BME280;6136;47.032;15.398;2023-05-08T00:51:24;97901.16;;;12.82;100.00
12146;BME280;6136;47.032;15.398;2023-05-08T00:53:53;97905.94;;;12.77;100.00
12146;BME280;6136;47.032;15.398;2023-05-08T00:56:23;97905.19;;;12.75;100.00
12146;BME280;6136;47.032;15.398;2023-05-08T00:58:51;97907.41;;;12.69;100.00
12146;BME280;6136;47.032;15.398;2023-05-08T01:01:20;97903.03;;;12.68;100.00
12146;BME280;6136;47.032;15.398;2023-05-08T01:03:49;97904.28;;;12.62;100.00
12146;BME280;6136;47.032;15.398;2023-05-08T01:06:19;97906.75;;;12.65;100.00
12146;BME280;6136;47.032;15.398;2023-05-08T01:08:48;97906.94;;;12.62;100.00
12146;BME280;6136;47.032;15.398;2023-05-08T01:11:28;97919.28;;;12.63;100.00
12146;BME280;6136;47.032;15.398;2023-05-08T01:14:06;97919.28;;;12.63;100.00
12146;BME280;6136;47.032;15.398;2023-05-08T01:16:40;97916.19;;;12.57;100.00
12146;BME280;6136;47.032;15.398;2023-05-08T01:19:31;97915.72;;;12.50;100.00
12146;BME280;6136;47.032;15.398;2023-05-08T01:22:10;97921.22;;;12.47;100.00
12146;BME280;6136;47.032;15.398;2023-05-08T01:25:01;97919.63;;;12.44;100.00
12146;BME280;6136;47.032;15.398;2023-05-08T01:31:04;97922.19;;;12.32;100.00
12146;BME280;6136;47.032;15.398;2023-05-08T01:33:40;97935.69;;;12.29;100.00
12146;BME280;6136;47.032;15.398;2023-05-08T01:36:17;97927.72;;;12.29;100.00
12146;BME280;6136;47.032;15.398;2023-05-08T01:38:52;97925.44;;;12.23;100.00
12146;BME280;6136;47.032;15.398;2023-05-08T01:41:25;97940.06;;;12.16;100.00
12146;BME280;6136;47.032;15.398;2023-05-08T01:44:04;97934.56;;;12.19;100.00
12146;BME280;6136;47.032;15.398;2023-05-08T01:46:33;97944.03;;;12.09;100.00
12146;BME280;6136;47.032;15.398;2023-05-08T01:49:05;97947.09;;;12.02;100.00
12146;BME280;6136;47.032;15.398;2023-05-08T01:51:39;97939.69;;;11.79;100.00
12146;BME280;6136;47.032;15.398;2023-05-08T01:54:10;97956.75;;;11.75;100.00
12146;BME280;6136;47.032;15.398;2023-05-08T01:56:41;97948.38;;;11.67;100.00
12146;BME280;6136;47.032;15.398;2023-05-08T01:59:12;97957.09;;;11.69;100.00
12146;BME280;6136;47.032;15.398;2023-05-08T02:01:43;97957.66;;;11.60;100.00
12146;BME280;6136;47.032;15.398;2023-05-08T02:04:16;97960.75;;;11.52;100.00
12146;BME280;6136;47.032;15.398;2023-05-08T02:06:45;97962.72;;;11.49;100.00
12146;BME280;6136;47.032;15.398;2023-05-08T02:09:13;97960.06;;;11.49;100.00
12146;BME280;6136;47.032;15.398;2023-05-08T02:11:44;97972.59;;;11.47;100.00
12146;BME280;6136;47.032;15.398;2023-05-08T02:14:18;97972.13;;;11.40;100.00
12146;BME280;6136;47.032;15.398;2023-05-08T02:16:47;97969.91;;;11.33;100.00
12146;BME280;6136;47.032;15.398;2023-05-08T02:19:21;97973.50;;;11.32;100.00
12146;BME280;6136;47.032;15.398;2023-05-08T02:21:50;97969.06;;;11.32;100.00
12146;BME280;6136;47.032;15.398;2023-05-08T02:24:20;97976.16;;;11.32;100.00
12146;BME280;6136;47.032;15.398;2023-05-08T02:26:51;97968.72;;;11.22;100.00
12146;BME280;6136;47.032;15.398;2023-05-08T02:29:21;97974.88;;;11.23;100.00
12146;BME280;6136;47.032;15.398;2023-05-08T02:31:51;97977.63;;;11.21;100.00
12146;BME280;6136;47.032;15.398;2023-05-08T02:34:23;97991.59;;;11.09;100.00
12146;BME280;6136;47.032;15.398;2023-05-08T02:36:52;97990.25;;;11.02;100.00
12146;BME280;6136;47.032;15.398;2023-05-08T02:39:25;97990.44;;;10.83;100.00
12146;BME280;6136;47.032;15.398;2023-05-08T02:41:56;97985.31;;;10.80;100.00
12146;BME280;6136;47.032;15.398;2023-05-08T02:44:24;97986.50;;;10.75;100.00
12146;BME280;6136;47.032;15.398;2023-05-08T02:46:56;97992.66;;;10.60;100.00
12146;BME280;6136;47.032;15.398;2023-05-08T02:49:31;97990.34;;;10.54;100.00
12146;BME280;6136;47.032;15.398;2023-05-08T02:52:04;97994.13;;;10.49;100.00
12146;BME280;6136;47.032;15.398;2023-05-08T02:54:42;97993.59;;;10.43;100.00
12146;BME280;6136;47.032;15.398;2023-05-08T02:57:28;98003.06;;;10.31;100.00
12146;BME280;6136;47.032;15.398;2023-05-08T03:00:01;97985.78;;;10.24;100.00
12146;BME280;6136;47.032;15.398;2023-05-08T03:02:36;98005.88;;;10.28;100.00
12146;BME280;6136;47.032;15.398;2023-05-08T03:05:12;97989.63;;;10.19;100.00
12146;BME280;6136;47.032;15.398;2023-05-08T03:07:42;98004.31;;;10.24;100.00
12146;BME280;6136;47.032;15.398;2023-05-08T03:10:13;98007.16;;;10.21;100.00
12146;BME280;6136;47.032;15.398;2023-05-08T03:12:44;98004.50;;;10.21;100.00
12146;BME280;6136;47.032;15.398;2023-05-08T03:15:18;98001.19;;;10.16;100.00
12146;BME280;6136;47.032;15.398;2023-05-08T03:17:52;98006.38;;;10.19;100.00
12146;BME280;6136;47.032;15.398;2023-05-08T03:20:25;98003.09;;;10.14;100.00
12146;BME280;6136;47.032;15.398;2023-05-08T03:22:55;98009.09;;;10.18;100.00
12146;BME280;6136;47.032;15.398;2023-05-08T03:25:24;98017.09;;;10.16;100.00
12146;BME280;6136;47.032;15.398;2023-05-08T03:27:54;98015.41;;;10.15;100.00
12146;BME280;6136;47.032;15.398;2023-05-08T03:30:24;98015.28;;;10.17;100.00
12146;BME280;6136;47.032;15.398;2023-05-08T03:33:02;98009.88;;;10.20;100.00
12146;BME280;6136;47.032;15.398;2023-05-08T03:35:33;98007.34;;;10.17;100.00
12146;BME280;6136;47.032;15.398;2023-05-08T03:38:03;98010.94;;;10.16;100.00
12146;BME280;6136;47.032;15.398;2023-05-08T03:40:33;98016.19;;;10.17;100.00
12146;BME280;6136;47.032;15.398;2023-05-08T03:43:05;98019.84;;;10.15;100.00
12146;BME280;6136;47.032;15.398;2023-05-08T03:45:34;98016.22;;;10.16;100.00
12146;BME280;6136;47.032;15.398;2023-05-08T03:48:04;98026.00;;;10.15;100.00
12146;BME280;6136;47.032;15.398;2023-05-08T03:50:37;98022.56;;;10.13;100.00
12146;BME280;6136;47.032;15.398;2023-05-08T03:53:08;98025.13;;;10.15;100.00
12146;BME280;6136;47.032;15.398;2023-05-08T03:55:36;98028.00;;;10.10;100.00
12146;BME280;6136;47.032;15.398;2023-05-08T03:58:14;98033.47;;;10.07;100.00
12146;BME280;6136;47.032;15.398;2023-05-08T04:00:55;98029.19;;;10.04;100.00
12146;BME280;6136;47.032;15.398;2023-05-08T04:03:35;98026.25;;;9.93;100.00
12146;BME280;6136;47.032;15.398;2023-05-08T04:06:13;98030.19;;;10.02;100.00
12146;BME280;6136;47.032;15.398;2023-05-08T04:08:47;98048.28;;;9.94;100.00
12146;BME280;6136;47.032;15.398;2023-05-08T04:11:25;98044.69;;;9.95;100.00
12146;BME280;6136;47.032;15.398;2023-05-08T04:14:02;98057.19;;;9.93;100.00
12146;BME280;6136;47.032;15.398;2023-05-08T04:16:35;98043.16;;;9.91;100.00
12146;BME280;6136;47.032;15.398;2023-05-08T04:19:09;98066.81;;;9.94;100.00
12146;BME280;6136;47.032;15.398;2023-05-08T04:21:41;98066.50;;;10.00;100.00
12146;BME280;6136;47.032;15.398;2023-05-08T04:24:13;98062.47;;;9.93;100.00
12146;BME280;6136;47.032;15.398;2023-05-08T04:26:44;98064.88;;;9.80;100.00
12146;BME280;6136;47.032;15.398;2023-05-08T04:29:15;98070.03;;;9.83;100.00
12146;BME280;6136;47.032;15.398;2023-05-08T04:31:45;98077.97;;;9.83;100.00
12146;BME280;6136;47.032;15.398;2023-05-08T04:34:14;98080.16;;;9.75;100.00
12146;BME280;6136;47.032;15.398;2023-05-08T04:36:44;98081.84;;;9.76;100.00
12146;BME280;6136;47.032;15.398;2023-05-08T04:39:14;98088.88;;;9.77;100.00
12146;BME280;6136;47.032;15.398;2023-05-08T04:41:42;98096.69;;;9.79;100.00
12146;BME280;6136;47.032;15.398;2023-05-08T04:44:11;98092.38;;;9.78;100.00
12146;BME280;6136;47.032;15.398;2023-05-08T04:46:39;98088.16;;;9.73;100.00
12146;BME280;6136;47.032;15.398;2023-05-08T04:49:08;98089.16;;;9.71;100.00
12146;BME280;6136;47.032;15.398;2023-05-08T04:51:36;98087.00;;;9.62;100.00
12146;BME280;6136;47.032;15.398;2023-05-08T04:54:06;98103.63;;;9.64;100.00
12146;BME280;6136;47.032;15.398;2023-05-08T04:56:34;98106.84;;;9.70;100.00
12146;BME280;6136;47.032;15.398;2023-05-08T04:59:02;98099.19;;;9.64;100.00
12146;BME280;6136;47.032;15.398;2023-05-08T05:01:31;98106.75;;;9.72;100.00
12146;BME280;6136;47.032;15.398;2023-05-08T05:03:59;98106.44;;;9.78;100.00
12146;BME280;6136;47.032;15.398;2023-05-08T05:06:27;98110.34;;;9.88;100.00
12146;BME280;6136;47.032;15.398;2023-05-08T05:08:56;98098.75;;;9.73;100.00
12146;BME280;6136;47.032;15.398;2023-05-08T05:11:26;98105.50;;;9.79;100.00
12146;BME280;6136;47.032;15.398;2023-05-08T05:13:54;98107.94;;;9.84;100.00
12146;BME280;6136;47.032;15.398;2023-05-08T05:16:23;98119.47;;;9.83;100.00
12146;BME280;6136;47.032;15.398;2023-05-08T05:18:51;98110.41;;;9.87;100.00
12146;BME280;6136;47.032;15.398;2023-05-08T05:21:19;98113.84;;;9.89;100.00
12146;BME280;6136;47.032;15.398;2023-05-08T05:23:47;98119.16;;;9.89;100.00
12146;BME280;6136;47.032;15.398;2023-05-08T05:26:16;98113.44;;;9.79;100.00
12146;BME280;6136;47.032;15.398;2023-05-08T05:28:45;98119.06;;;9.73;100.00
12146;BME280;6136;47.032;15.398;2023-05-08T05:31:14;98123.03;;;9.82;100.00
12146;BME280;6136;47.032;15.398;2023-05-08T05:33:42;98118.06;;;9.76;100.00
12146;BME280;6136;47.032;15.398;2023-05-08T05:36:10;98118.75;;;9.79;100.00
12146;BME280;6136;47.032;15.398;2023-05-08T05:38:38;98121.84;;;9.87;100.00
12146;BME280;6136;47.032;15.398;2023-05-08T05:41:07;98117.75;;;9.82;100.00
12146;BME280;6136;47.032;15.398;2023-05-08T05:43:35;98124.22;;;9.76;100.00
12146;BME280;6136;47.032;15.398;2023-05-08T05:46:05;98120.63;;;9.77;100.00
12146;BME280;6136;47.032;15.398;2023-05-08T05:48:34;98123.66;;;9.69;100.00
12146;BME280;6136;47.032;15.398;2023-05-08T05:51:02;98129.72;;;9.71;100.00
12146;BME280;6136;47.032;15.398;2023-05-08T05:53:32;98125.06;;;9.77;100.00
12146;BME280;6136;47.032;15.398;2023-05-08T05:56:00;98123.97;;;9.81;100.00
12146;BME280;6136;47.032;15.398;2023-05-08T05:58:30;98126.59;;;9.81;100.00
12146;BME280;6136;47.032;15.398;2023-05-08T06:00:59;98125.06;;;9.77;100.00
12146;BME280;6136;47.032;15.398;2023-05-08T06:03:30;98127.16;;;9.87;100.00
12146;BME280;6136;47.032;15.398;2023-05-08T06:05:58;98131.44;;;9.90;100.00
12146;BME280;6136;47.032;15.398;2023-05-08T06:08:27;98125.59;;;9.83;100.00
12146;BME280;6136;47.032;15.398;2023-05-08T06:10:55;98125.06;;;9.77;100.00
12146;BME280;6136;47.032;15.398;2023-05-08T06:13:23;98112.91;;;9.72;100.00
12146;BME280;6136;47.032;15.398;2023-05-08T06:15:53;98137.00;;;9.85;100.00
12146;BME280;6136;47.032;15.398;2023-05-08T06:18:23;98140.63;;;9.83;100.00
12146;BME280;6136;47.032;15.398;2023-05-08T06:20:56;98132.84;;;9.97;100.00
12146;BME280;6136;47.032;15.398;2023-05-08T06:23:25;98133.06;;;10.09;100.00
12146;BME280;6136;47.032;15.398;2023-05-08T06:25:54;98134.25;;;10.04;100.00
12146;BME280;6136;47.032;15.398;2023-05-08T06:28:23;98141.81;;;10.11;100.00
12146;BME280;6136;47.032;15.398;2023-05-08T06:30:52;98138.69;;;10.03;100.00
12146;BME280;6136;47.032;15.398;2023-05-08T06:33:20;98141.41;;;10.02;100.00
12146;BME280;6136;47.032;15.398;2023-05-08T06:35:55;98148.28;;;10.06;100.00
12146;BME280;6136;47.032;15.398;2023-05-08T06:38:27;98138.38;;;10.09;100.00
12146;BME280;6136;47.032;15.398;2023-05-08T06:40:57;98136.66;;;10.08;100.00
12146;BME280;6136;47.032;15.398;2023-05-08T06:43:28;98146.38;;;10.08;100.00
12146;BME280;6136;47.032;15.398;2023-05-08T06:45:58;98145.69;;;10.04;100.00
12146;BME280;6136;47.032;15.398;2023-05-08T06:48:33;98138.69;;;10.03;100.00
12146;BME280;6136;47.032;15.398;2023-05-08T06:51:02;98144.69;;;10.07;100.00
12146;BME280;6136;47.032;15.398;2023-05-08T06:53:32;98139.22;;;10.10;100.00
12146;BME280;6136;47.032;15.398;2023-05-08T06:56:00;98143.94;;;10.22;100.00
12146;BME280;6136;47.032;15.398;2023-05-08T06:58:28;98152.03;;;10.19;100.00
12146;BME280;6136;47.032;15.398;2023-05-08T07:00:58;98159.53;;;10.28;100.00
12146;BME280;6136;47.032;15.398;2023-05-08T07:03:27;98153.88;;;10.52;100.00
12146;BME280;6136;47.032;15.398;2023-05-08T07:05:55;98165.09;;;10.57;100.00
12146;BME280;6136;47.032;15.398;2023-05-08T07:08:23;98157.75;;;10.62;100.00
12146;BME280;6136;47.032;15.398;2023-05-08T07:10:53;98158.13;;;10.71;100.00
12146;BME280;6136;47.032;15.398;2023-05-08T07:13:22;98164.59;;;10.66;100.00
12146;BME280;6136;47.032;15.398;2023-05-08T07:15:50;98161.97;;;10.66;100.00
12146;BME280;6136;47.032;15.398;2023-05-08T07:18:21;98159.47;;;10.63;100.00
12146;BME280;6136;47.032;15.398;2023-05-08T07:20:49;98151.84;;;10.57;100.00
12146;BME280;6136;47.032;15.398;2023-05-08T07:23:21;98168.88;;;10.68;100.00
12146;BME280;6136;47.032;15.398;2023-05-08T07:25:49;98173.50;;;10.65;100.00
12146;BME280;6136;47.032;15.398;2023-05-08T07:28:19;98179.28;;;10.56;100.00
12146;BME280;6136;47.032;15.398;2023-05-08T07:30:47;98169.47;;;10.58;100.00
12146;BME280;6136;47.032;15.398;2023-05-08T07:33:16;98170.53;;;10.54;100.00
12146;BME280;6136;47.032;15.398;2023-05-08T07:35:48;98170.59;;;10.69;100.00
12146;BME280;6136;47.032;15.398;2023-05-08T07:38:22;98177.69;;;10.69;100.00
12146;BME280;6136;47.032;15.398;2023-05-08T07:40:50;98177.81;;;10.83;100.00
12146;BME280;6136;47.032;15.398;2023-05-08T07:43:24;98185.59;;;10.86;100.00
12146;BME280;6136;47.032;15.398;2023-05-08T07:45:53;98172.47;;;11.00;100.00
12146;BME280;6136;47.032;15.398;2023-05-08T07:48:21;98177.38;;;11.23;100.00
12146;BME280;6136;47.032;15.398;2023-05-08T07:50:49;98170.91;;;11.12;100.00
12146;BME280;6136;47.032;15.398;2023-05-08T07:53:18;98183.59;;;11.07;100.00
12146;BME280;6136;47.032;15.398;2023-05-08T07:55:47;98176.47;;;10.92;100.00
12146;BME280;6136;47.032;15.398;2023-05-08T07:58:16;98177.28;;;10.76;100.00
12146;BME280;6136;47.032;15.398;2023-05-08T08:00:45;98190.75;;;10.89;100.00
12146;BME280;6136;47.032;15.398;2023-05-08T08:03:14;98183.22;;;10.97;100.00
12146;BME280;6136;47.032;15.398;2023-05-08T08:05:44;98186.84;;;11.12;100.00
12146;BME280;6136;47.032;15.398;2023-05-08T08:08:12;98191.22;;;11.28;100.00
12146;BME280;6136;47.032;15.398;2023-05-08T08:10:40;98189.50;;;11.27;100.00
12146;BME280;6136;47.032;15.398;2023-05-08T08:13:08;98187.63;;;11.29;100.00
12146;BME280;6136;47.032;15.398;2023-05-08T08:15:37;98180.97;;;11.22;100.00
12146;BME280;6136;47.032;15.398;2023-05-08T08:18:07;98173.78;;;11.24;100.00
12146;BME280;6136;47.032;15.398;2023-05-08T08:20:36;98177.78;;;11.16;100.00
12146;BME280;6136;47.032;15.398;2023-05-08T08:23:04;98178.06;;;11.11;100.00
12146;BME280;6136;47.032;15.398;2023-05-08T08:25:33;98173.34;;;11.16;100.00
12146;BME280;6136;47.032;15.398;2023-05-08T08:28:01;98183.34;;;11.27;100.00
12146;BME280;6136;47.032;15.398;2023-05-08T08:30:30;98177.72;;;11.33;100.00
12146;BME280;6136;47.032;15.398;2023-05-08T08:32:58;98180.53;;;11.30;100.00
12146;BME280;6136;47.032;15.398;2023-05-08T08:35:29;98178.03;;;11.58;100.00
12146;BME280;6136;47.032;15.398;2023-05-08T08:37:59;98193.63;;;11.96;100.00
12146;BME280;6136;47.032;15.398;2023-05-08T08:40:28;98188.50;;;11.93;100.00
12146;BME280;6136;47.032;15.398;2023-05-08T08:42:58;98185.22;;;11.72;100.00
12146;BME280;6136;47.032;15.398;2023-05-08T08:45:26;98186.09;;;11.57;100.00
12146;BME280;6136;47.032;15.398;2023-05-08T08:48:03;98186.09;;;11.88;100.00
12146;BME280;6136;47.032;15.398;2023-05-08T08:50:34;98187.47;;;11.95;100.00
12146;BME280;6136;47.032;15.398;2023-05-08T08:53:11;98194.66;;;11.93;100.00
12146;BME280;6136;47.032;15.398;2023-05-08T08:55:45;98186.88;;;11.90;100.00
12146;BME280;6136;47.032;15.398;2023-05-08T08:58:21;98199.03;;;11.94;100.00
12146;BME280;6136;47.032;15.398;2023-05-08T09:00:54;98204.22;;;12.12;100.00
12146;BME280;6136;47.032;15.398;2023-05-08T09:03:29;98191.06;;;11.94;100.00
12146;BME280;6136;47.032;15.398;2023-05-08T09:05:59;98193.50;;;12.13;100.00
12146;BME280;6136;47.032;15.398;2023-05-08T09:08:28;98198.09;;;11.95;100.00
12146;BME280;6136;47.032;15.398;2023-05-08T09:11:03;98195.00;;;11.87;100.00
12146;BME280;6136;47.032;15.398;2023-05-08T09:13:35;98191.94;;;11.79;100.00
12146;BME280;6136;47.032;15.398;2023-05-08T09:16:08;98189.00;;;11.68;100.00
12146;BME280;6136;47.032;15.398;2023-05-08T09:18:39;98200.16;;;11.90;100.00
12146;BME280;6136;47.032;15.398;2023-05-08T09:21:09;98202.38;;;11.82;100.00
12146;BME280;6136;47.032;15.398;2023-05-08T09:23:54;98197.13;;;11.96;100.00
12146;BME280;6136;47.032;15.398;2023-05-08T09:26:26;98200.38;;;12.01;100.00
12146;BME280;6136;47.032;15.398;2023-05-08T09:29:07;98204.06;;;12.15;100.00
12146;BME280;6136;47.032;15.398;2023-05-08T09:31:37;98202.34;;;12.14;100.00
12146;BME280;6136;47.032;15.398;2023-05-08T09:34:07;98202.03;;;12.34;100.00
12146;BME280;6136;47.032;15.398;2023-05-08T09:36:39;98207.25;;;12.35;100.00
12146;BME280;6136;47.032;15.398;2023-05-08T09:39:10;98210.31;;;12.14;100.00
12146;BME280;6136;47.032;15.398;2023-05-08T09:41:55;98202.16;;;12.17;100.00
12146;BME280;6136;47.032;15.398;2023-05-08T09:44:25;98206.06;;;12.25;100.00
12146;BME280;6136;47.032;15.398;2023-05-08T09:47:09;98209.81;;;12.37;100.00
12146;BME280;6136;47.032;15.398;2023-05-08T09:49:38;98210.47;;;12.11;100.00
12146;BME280;6136;47.032;15.398;2023-05-08T09:52:14;98207.13;;;11.77;100.00
12146;BME280;6136;47.032;15.398;2023-05-08T09:54:44;98203.69;;;11.75;100.00
12146;BME280;6136;47.032;15.398;2023-05-08T09:57:15;98212.31;;;11.79;100.00
12146;BME280;6136;47.032;15.398;2023-05-08T09:59:51;98219.31;;;12.11;100.00
12146;BME280;6136;47.032;15.398;2023-05-08T10:02:33;98214.38;;;11.89;100.00
12146;BME280;6136;47.032;15.398;2023-05-08T10:05:02;98216.69;;;11.95;100.00
12146;BME280;6136;47.032;15.398;2023-05-08T10:07:35;98215.56;;;11.99;100.00
12146;BME280;6136;47.032;15.398;2023-05-08T10:10:06;98218.66;;;12.08;100.00
12146;BME280;6136;47.032;15.398;2023-05-08T10:12:37;98202.03;;;11.88;100.00
12146;BME280;6136;47.032;15.398;2023-05-08T10:15:07;98199.81;;;11.81;100.00
12146;BME280;6136;47.032;15.398;2023-05-08T10:17:40;98211.66;;;11.75;100.00
12146;BME280;6136;47.032;15.398;2023-05-08T10:20:19;98218.22;;;11.68;100.00
12146;BME280;6136;47.032;15.398;2023-05-08T10:22:52;98208.59;;;11.50;100.00
12146;BME280;6136;47.032;15.398;2023-05-08T10:25:23;98214.34;;;11.58;100.00
12146;BME280;6136;47.032;15.398;2023-05-08T10:28:00;98220.88;;;11.68;100.00
12146;BME280;6136;47.032;15.398;2023-05-08T10:30:36;98211.66;;;11.75;100.00
12146;BME280;6136;47.032;15.398;2023-05-08T10:33:09;98213.19;;;11.79;100.00
12146;BME280;6136;47.032;15.398;2023-05-08T10:35:44;98219.75;;;11.72;100.00
12146;BME280;6136;47.032;15.398;2023-05-08T10:38:15;98217.19;;;11.71;100.00
12146;BME280;6136;47.032;15.398;2023-05-08T10:40:46;98214.78;;;11.66;100.00
12146;BME280;6136;47.032;15.398;2023-05-08T10:43:16;98206.81;;;11.66;100.00
12146;BME280;6136;47.032;15.398;2023-05-08T10:45:48;98208.19;;;11.73;100.00
12146;BME280;6136;47.032;15.398;2023-05-08T10:48:25;98212.63;;;11.57;100.00
12146;BME280;6136;47.032;15.398;2023-05-08T10:51:01;98210.75;;;11.43;100.00
12146;BME280;6136;47.032;15.398;2023-05-08T10:53:39;98203.94;;;11.71;100.00
12146;BME280;6136;47.032;15.398;2023-05-08T10:56:11;98201.16;;;11.72;100.00
12146;BME280;6136;47.032;15.398;2023-05-08T10:58:39;98212.66;;;11.88;100.00
12146;BME280;6136;47.032;15.398;2023-05-08T11:01:12;98218.81;;;11.73;100.00
12146;BME280;6136;47.032;15.398;2023-05-08T11:03:46;98215.06;;;11.93;100.00
12146;BME280;6136;47.032;15.398;2023-05-08T11:06:18;98219.09;;;11.84;100.00
12146;BME280;6136;47.032;15.398;2023-05-08T11:09:07;98213.25;;;11.93;100.00
12146;BME280;6136;47.032;15.398;2023-05-08T11:11:37;98217.81;;;11.91;100.00
12146;BME280;6136;47.032;15.398;2023-05-08T11:14:11;98218.75;;;11.75;100.00
12146;BME280;6136;47.032;15.398;2023-05-08T11:17:04;98215.25;;;11.74;100.00
12146;BME280;6136;47.032;15.398;2023-05-08T11:19:33;98214.19;;;11.61;100.00
12146;BME280;6136;47.032;15.398;2023-05-08T11:22:15;98216.34;;;11.86;100.00
12146;BME280;6136;47.032;15.398;2023-05-08T11:24:52;98201.63;;;11.80;100.00
12146;BME280;6136;47.032;15.398;2023-05-08T11:30:46;98212.81;;;12.31;100.00
12146;BME280;6136;47.032;15.398;2023-05-08T11:33:15;98214.28;;;12.36;100.00
12146;BME280;6136;47.032;15.398;2023-05-08T11:35:52;98223.03;;;12.23;100.00
12146;BME280;6136;47.032;15.398;2023-05-08T11:38:30;98222.41;;;12.33;100.00
12146;BME280;6136;47.032;15.398;2023-05-08T11:41:02;98224.28;;;12.01;100.00
12146;BME280;6136;47.032;15.398;2023-05-08T11:46:35;98217.59;;;12.10;100.00
12146;BME280;6136;47.032;15.398;2023-05-08T11:49:05;98225.63;;;12.09;100.00
12146;BME280;6136;47.032;15.398;2023-05-08T11:51:37;98217.72;;;12.23;100.00
12146;BME280;6136;47.032;15.398;2023-05-08T11:54:15;98221.13;;;12.40;100.00
12146;BME280;6136;47.032;15.398;2023-05-08T11:56:49;98216.78;;;12.54;100.00
12146;BME280;6136;47.032;15.398;2023-05-08T11:59:17;98220.53;;;12.65;100.00
12146;BME280;6136;47.032;15.398;2023-05-08T12:01:47;98220.53;;;12.65;100.00
12146;BME280;6136;47.032;15.398;2023-05-08T12:04:42;98218.44;;;12.84;100.00
12146;BME280;6136;47.032;15.398;2023-05-08T12:07:11;98222.44;;;13.06;100.00
12146;BME280;6136;47.032;15.398;2023-05-08T12:09:39;98209.81;;;13.09;100.00
12146;BME280;6136;47.032;15.398;2023-05-08T12:12:09;98204.00;;;13.59;100.00
12146;BME280;6136;47.032;15.398;2023-05-08T12:14:37;98215.97;;;13.67;100.00
12146;BME280;6136;47.032;15.398;2023-05-08T12:17:05;98215.66;;;14.25;98.67
12146;BME280;6136;47.032;15.398;2023-05-08T12:19:34;98217.81;;;14.59;93.36
12146;BME280;6136;47.032;15.398;2023-05-08T12:22:02;98224.84;;;14.60;93.56
12146;BME280;6136;47.032;15.398;2023-05-08T12:24:30;98213.25;;;14.34;93.85
12146;BME280;6136;47.032;15.398;2023-05-08T12:26:59;98217.53;;;13.83;99.84
12146;BME280;6136;47.032;15.398;2023-05-08T12:29:29;98217.63;;;14.09;98.19
12146;BME280;6136;47.032;15.398;2023-05-08T12:31:57;98210.41;;;14.11;96.77
12146;BME280;6136;47.032;15.398;2023-05-08T12:34:26;98202.75;;;14.19;96.54
12146;BME280;6136;47.032;15.398;2023-05-08T12:37:02;98210.41;;;14.11;100.00
12146;BME280;6136;47.032;15.398;2023-05-08T12:39:34;98203.00;;;14.28;100.00
12146;BME280;6136;47.032;15.398;2023-05-08T12:42:03;98208.44;;;15.17;93.98
12146;BME280;6136;47.032;15.398;2023-05-08T12:44:34;98193.56;;;15.38;93.05
12146;BME280;6136;47.032;15.398;2023-05-08T12:47:04;98197.88;;;15.77;87.75
12146;BME280;6136;47.032;15.398;2023-05-08T12:49:32;98204.25;;;16.46;85.42
12146;BME280;6136;47.032;15.398;2023-05-08T12:52:02;98184.91;;;16.66;85.39
12146;BME280;6136;47.032;15.398;2023-05-08T12:54:32;98181.41;;;16.77;81.45
12146;BME280;6136;47.032;15.398;2023-05-08T12:57:09;98185.34;;;17.06;80.88
12146;BME280;6136;47.032;15.398;2023-05-08T12:59:40;98179.84;;;17.41;78.43
12146;BME280;6136;47.032;15.398;2023-05-08T13:02:14;98163.72;;;17.86;74.39
12146;BME280;6136;47.032;15.398;2023-05-08T13:04:44;98180.06;;;18.79;71.69
12146;BME280;6136;47.032;15.398;2023-05-08T13:07:13;98164.34;;;18.95;64.84
12146;BME280;6136;47.032;15.398;2023-05-08T13:09:55;98171.66;;;18.19;68.23
12146;BME280;6136;47.032;15.398;2023-05-08T13:12:24;98169.25;;;17.73;77.12
12146;BME280;6136;47.032;15.398;2023-05-08T13:14:53;98178.53;;;17.69;73.86
12146;BME280;6136;47.032;15.398;2023-05-08T13:17:22;98161.19;;;17.73;73.64
12146;BME280;6136;47.032;15.398;2023-05-08T13:19:50;98165.97;;;17.36;75.44
12146;BME280;6136;47.032;15.398;2023-05-08T13:22:19;98172.03;;;17.72;72.75
12146;BME280;6136;47.032;15.398;2023-05-08T13:24:52;98171.59;;;17.22;77.43